Time;durP1;ratioP1;P1;durP2;ratioP2;P2;SDS_P1;SDS_P2;PMS_P1;PMS_P2;Temp;Humidity;BMP_temperature;BMP_pressure;BME280_temperature;BME280_humidity;BME280_pressure;Samples;Min_cycle;Max_cycle;Signal;HPM_P1;HPM_P2
2023/04/19 00:02:00;;;;;;;;;;;10.50;99.90;;;;;;8397770;28;19928;-76
2023/04/19 00:06:02;;;;;;;;;;;10.50;99.90;;;;;;8405030;28;19932;-76
2023/04/19 00:10:04;;;;;;;;;;;10.60;99.90;;;;;;8404460;28;20703;-75
2023/04/19 00:14:05;;;;;;;;;;;10.60;99.90;;;;;;8405019;28;19972;-76
2023/04/19 00:18:07;;;;;;;;;;;10.60;99.90;;;;;;8391556;28;19971;-76
2023/04/19 00:22:09;;;;;;;;;;;10.70;99.90;;;;;;8395921;28;20386;-76
2023/04/19 00:26:14;;;;;;;;;;;10.70;99.90;;;;;;8411757;28;19950;-76
2023/04/19 00:30:16;;;;;;;;;;;10.70;99.90;;;;;;8397206;28;19931;-76
2023/04/19 00:49:27;;;;;;;;;;;11.00;99.90;;;;;;8376030;28;19939;-76
2023/04/19 00:53:29;;;;;;;;;;;11.00;99.90;;;;;;8380816;28;19932;-76
2023/04/19 00:57:30;;;;;;;;;;;11.00;99.90;;;;;;8384351;28;20360;-76
2023/04/19 01:01:32;;;;;;;;;;;10.90;99.90;;;;;;8371024;28;19935;-75
2023/04/19 01:05:34;;;;;;;;;;;10.90;99.90;;;;;;8397077;28;19970;-76
2023/04/19 01:09:39;;;;;;;;;;;10.70;99.90;;;;;;8372041;28;20398;-76
2023/04/19 01:13:41;;;;;;;;;;;10.60;99.90;;;;;;8392813;28;19924;-76
2023/04/19 01:17:42;;;;;;;;;;;10.40;99.90;;;;;;8385856;28;20019;-76
2023/04/19 01:21:45;;;;;;;;;;;10.20;99.90;;;;;;8387967;28;19969;-76
2023/04/19 01:25:46;;;;;;;;;;;10.10;99.90;;;;;;8386490;28;19928;-76
2023/04/19 01:29:48;;;;;;;;;;;10.00;99.90;;;;;;8380017;28;19929;-76
2023/04/19 01:33:50;;;;;;;;;;;10.00;99.90;;;;;;8397265;28;19924;-75
2023/04/19 01:37:54;;;;;;;;;;;10.00;99.90;;;;;;8394181;28;20288;-76
2023/04/19 01:41:55;;;;;;;;;;;9.90;99.90;;;;;;8393518;28;19972;-76
2023/04/19 01:45:57;;;;;;;;;;;9.90;99.90;;;;;;8388601;28;19932;-76
2023/04/19 01:49:59;;;;;;;;;;;9.80;99.90;;;;;;8387389;28;19956;-76
2023/04/19 01:54:01;;;;;;;;;;;9.80;99.90;;;;;;8395805;28;19924;-75
2023/04/19 01:58:03;;;;;;;;;;;9.80;99.90;;;;;;8381568;28;19974;-75
2023/04/19 02:02:08;;;;;;;;;;;9.80;99.90;;;;;;8397128;28;19993;-76
2023/04/19 02:11:15;;;;;;;;;;;9.80;99.90;;;;;;8378210;28;19929;-75
2023/04/19 02:15:17;;;;;;;;;;;9.80;99.90;;;;;;8386882;28;19932;-76
2023/04/19 02:19:19;;;;;;;;;;;9.80;99.90;;;;;;8389805;28;19975;-76
2023/04/19 02:23:20;;;;;;;;;;;9.80;99.90;;;;;;8381706;28;20360;-76
2023/04/19 02:27:22;;;;;;;;;;;9.80;99.90;;;;;;8380386;28;19954;-76
2023/04/19 02:31:27;;;;;;;;;;;9.90;99.90;;;;;;8394447;28;20703;-75
2023/04/19 02:35:28;;;;;;;;;;;9.90;99.90;;;;;;8383367;28;19991;-76
2023/04/19 02:39:30;;;;;;;;;;;9.90;99.90;;;;;;8385277;28;19925;-75
2023/04/19 02:43:31;;;;;;;;;;;9.90;99.90;;;;;;8396091;28;19932;-76
2023/04/19 02:47:33;;;;;;;;;;;9.80;99.90;;;;;;8383841;28;19983;-76
2023/04/19 02:51:35;;;;;;;;;;;9.90;99.90;;;;;;8382799;28;19970;-76
2023/04/19 03:05:43;;;;;;;;;;;9.70;99.90;;;;;;8391830;28;20454;-76
2023/04/19 03:09:45;;;;;;;;;;;9.70;99.90;;;;;;8383770;28;19929;-76
2023/04/19 03:13:47;;;;;;;;;;;9.70;99.90;;;;;;8374770;28;20363;-76
2023/04/19 03:17:48;;;;;;;;;;;9.70;99.90;;;;;;8371442;28;20017;-75
2023/04/19 03:21:50;;;;;;;;;;;9.70;99.90;;;;;;8385806;28;19978;-75
2023/04/19 03:25:55;;;;;;;;;;;9.70;99.90;;;;;;8404593;28;19978;-75
2023/04/19 03:29:57;;;;;;;;;;;9.80;99.90;;;;;;8423029;28;19928;-75
2023/04/19 03:33:58;;;;;;;;;;;9.80;99.90;;;;;;8384086;28;19932;-75
2023/04/19 03:38:00;;;;;;;;;;;9.90;99.90;;;;;;8380468;28;19924;-76
2023/04/19 03:42:02;;;;;;;;;;;9.80;99.90;;;;;;8399798;28;19931;-76
2023/04/19 03:56:11;;;;;;;;;;;9.90;99.90;;;;;;8372618;28;19978;-75
2023/04/19 04:00:12;;;;;;;;;;;10.00;99.90;;;;;;8370840;28;19975;-76
2023/04/19 04:04:14;;;;;;;;;;;10.00;99.90;;;;;;8371949;28;20395;-75
2023/04/19 04:08:16;;;;;;;;;;;10.00;99.90;;;;;;8382496;28;20395;-76
2023/04/19 04:17:23;;;;;;;;;;;10.00;99.90;;;;;;8372999;28;20421;-75
2023/04/19 04:21:25;;;;;;;;;;;10.00;99.90;;;;;;8384298;28;19977;-75
2023/04/19 04:25:27;;;;;;;;;;;9.90;99.90;;;;;;8378678;28;19925;-76
2023/04/19 04:34:33;;;;;;;;;;;9.70;99.90;;;;;;8380497;28;19923;-75
2023/04/19 04:54:06;;;;;;;;;;;9.30;99.90;;;;;;8401417;28;20268;-76
2023/04/19 04:58:07;;;;;;;;;;;9.30;99.90;;;;;;8399993;28;20352;-76
2023/04/19 05:02:09;;;;;;;;;;;9.20;99.90;;;;;;8405634;28;20265;-76
2023/04/19 05:11:15;;;;;;;;;;;9.20;99.90;;;;;;8396078;28;20383;-76
2023/04/19 05:15:16;;;;;;;;;;;9.20;99.90;;;;;;8411926;28;20359;-76
2023/04/19 05:19:18;;;;;;;;;;;9.30;99.90;;;;;;8386885;28;20356;-76
2023/04/19 05:23:20;;;;;;;;;;;9.30;99.90;;;;;;8394447;28;19991;-75
2023/04/19 05:37:29;;;;;;;;;;;9.40;99.90;;;;;;8379857;28;19923;-77
2023/04/19 05:41:30;;;;;;;;;;;9.40;99.90;;;;;;8413481;28;19925;-76
2023/04/19 05:45:32;;;;;;;;;;;9.40;99.90;;;;;;8381372;28;19932;-76
2023/04/19 05:49:34;;;;;;;;;;;9.50;99.90;;;;;;8390175;28;19933;-76
2023/04/19 05:53:36;;;;;;;;;;;9.60;99.90;;;;;;8410461;28;19955;-76
2023/04/19 05:57:37;;;;;;;;;;;9.70;99.90;;;;;;8398915;28;19928;-76
2023/04/19 06:01:39;;;;;;;;;;;9.80;99.90;;;;;;8399518;28;20398;-76
2023/04/19 06:05:42;;;;;;;;;;;9.90;99.90;;;;;;8409892;28;19947;-76
2023/04/19 06:09:43;;;;;;;;;;;10.00;99.90;;;;;;8397297;28;20319;-76
2023/04/19 06:13:45;;;;;;;;;;;10.10;99.90;;;;;;8399820;28;20388;-76
2023/04/19 06:28:32;;;;;;;;;;;10.30;99.90;;;;;;8388735;28;19920;-76
2023/04/19 06:53:07;;;;;;;;;;;10.90;99.90;;;;;;8394437;28;20276;-76
2023/04/19 06:57:08;;;;;;;;;;;11.00;99.90;;;;;;8396160;28;19935;-76
2023/04/19 07:01:10;;;;;;;;;;;11.20;99.90;;;;;;8393395;28;19932;-76
2023/04/19 07:05:12;;;;;;;;;;;11.30;99.90;;;;;;8395856;28;19950;-76
2023/04/19 07:09:14;;;;;;;;;;;11.40;99.90;;;;;;8398077;28;19928;-76
2023/04/19 07:13:15;;;;;;;;;;;11.50;99.90;;;;;;8410167;28;19966;-77
2023/04/19 07:22:28;;;;;;;;;;;11.70;99.90;;;;;;8372609;28;19927;-77
2023/04/19 08:02:26;;;;;;;;;;;12.90;99.90;;;;;;8387997;28;19931;-76
2023/04/19 08:16:35;;;;;;;;;;;13.10;98.90;;;;;;8380156;28;20385;-76
2023/04/19 08:20:42;;;;;;;;;;;13.30;98.60;;;;;;8393775;28;20366;-76
2023/04/19 08:24:44;;;;;;;;;;;13.30;98.40;;;;;;8389653;28;19928;-76
2023/04/19 08:28:45;;;;;;;;;;;13.30;96.00;;;;;;8406221;28;19928;-76
2023/04/19 08:32:47;;;;;;;;;;;13.40;99.30;;;;;;8399074;28;19932;-76
2023/04/19 08:36:49;;;;;;;;;;;13.60;98.90;;;;;;8393508;28;19925;-77
2023/04/19 08:41:03;;;;;;;;;;;13.70;97.50;;;;;;8394114;28;19924;-76
2023/04/19 08:45:05;;;;;;;;;;;13.80;97.70;;;;;;8393588;28;19932;-76
2023/04/19 08:49:10;;;;;;;;;;;13.90;98.30;;;;;;8392339;28;19924;-76
2023/04/19 08:53:12;;;;;;;;;;;14.00;96.10;;;;;;8381979;28;19932;-76
2023/04/19 08:57:24;;;;;;;;;;;14.20;99.90;;;;;;8389345;28;20498;-77
2023/04/19 09:01:26;;;;;;;;;;;14.40;99.50;;;;;;8404146;28;19924;-77
2023/04/19 09:05:36;;;;;;;;;;;14.40;98.80;;;;;;8392031;28;19928;-76
2023/04/19 09:09:41;;;;;;;;;;;14.50;99.10;;;;;;8396191;28;19929;-77
2023/04/19 09:14:06;;;;;;;;;;;14.60;98.50;;;;;;8392976;28;19925;-76
2023/04/19 09:18:08;;;;;;;;;;;14.70;94.90;;;;;;8389976;28;19929;-76
2023/04/19 09:22:13;;;;;;;;;;;14.70;97.20;;;;;;8404776;28;19929;-76
2023/04/19 09:26:15;;;;;;;;;;;14.80;97.10;;;;;;8413071;27;19925;-77
2023/04/19 09:30:24;;;;;;;;;;;14.80;94.60;;;;;;8390285;28;20505;-76
2023/04/19 09:34:33;;;;;;;;;;;14.90;94.30;;;;;;8383677;28;19960;-76
2023/04/19 09:38:47;;;;;;;;;;;15.00;94.00;;;;;;8392913;28;19924;-76
2023/04/19 09:42:49;;;;;;;;;;;15.10;92.40;;;;;;8392776;28;19933;-76
2023/04/19 09:46:54;;;;;;;;;;;15.20;96.60;;;;;;8386063;28;19924;-76
2023/04/19 09:50:57;;;;;;;;;;;15.30;93.30;;;;;;8385201;28;19924;-76
2023/04/19 09:55:05;;;;;;;;;;;15.30;94.30;;;;;;8397902;28;20411;-76
2023/04/19 09:59:18;;;;;;;;;;;15.40;96.30;;;;;;8395302;28;19928;-77
2023/04/19 10:18:32;;;;;;;;;;;15.70;90.00;;;;;;8381068;28;19974;-76
2023/04/19 10:22:36;;;;;;;;;;;15.90;91.50;;;;;;8374281;28;20372;-76
2023/04/19 10:26:56;;;;;;;;;;;16.00;87.80;;;;;;8394673;28;20384;-76
2023/04/19 10:31:02;;;;;;;;;;;16.30;92.10;;;;;;8418381;28;19924;-77
2023/04/19 10:35:07;;;;;;;;;;;16.70;91.60;;;;;;8400736;28;19935;-76
2023/04/19 10:44:24;;;;;;;;;;;17.30;92.60;;;;;;8398571;28;19986;-76
2023/04/19 10:48:29;;;;;;;;;;;17.80;96.20;;;;;;8403046;28;20007;-77
2023/04/19 10:52:30;;;;;;;;;;;17.90;95.00;;;;;;8393557;28;19925;-77
2023/04/19 10:56:32;;;;;;;;;;;18.10;92.40;;;;;;8393734;28;19939;-77
2023/04/19 11:00:35;;;;;;;;;;;18.20;89.10;;;;;;8392383;28;19975;-77
2023/04/19 11:04:49;;;;;;;;;;;18.30;91.00;;;;;;8383184;28;19925;-77
2023/04/19 11:08:51;;;;;;;;;;;18.60;99.90;;;;;;8403181;28;19928;-77
2023/04/19 11:12:53;;;;;;;;;;;18.90;99.90;;;;;;8394476;28;19947;-77
2023/04/19 11:16:54;;;;;;;;;;;18.90;92.30;;;;;;8408685;28;20299;-77
2023/04/19 11:31:09;;;;;;;;;;;18.40;81.20;;;;;;8372675;28;20387;-77
2023/04/19 11:35:11;;;;;;;;;;;18.80;99.60;;;;;;8373472;28;19979;-77
2023/04/19 11:39:13;;;;;;;;;;;19.50;99.90;;;;;;8378845;28;19924;-77
2023/04/19 11:43:15;;;;;;;;;;;19.90;99.90;;;;;;8359815;28;19929;-77
2023/04/19 11:47:17;;;;;;;;;;;20.20;99.90;;;;;;8361488;28;20023;-77
2023/04/19 11:51:19;;;;;;;;;;;20.30;98.90;;;;;;8365700;28;19924;-77
2023/04/19 11:55:21;;;;;;;;;;;20.10;94.60;;;;;;8376311;28;19933;-76
2023/04/19 11:59:23;;;;;;;;;;;20.10;84.70;;;;;;8371637;28;19933;-77
2023/04/19 12:03:25;;;;;;;;;;;20.30;75.20;;;;;;8371440;28;20321;-77
2023/04/19 12:07:27;;;;;;;;;;;20.70;90.90;;;;;;8387461;28;19932;-77
2023/04/19 12:11:43;;;;;;;;;;;21.00;96.80;;;;;;8369783;28;19936;-77
2023/04/19 12:15:45;;;;;;;;;;;21.50;99.90;;;;;;8365138;28;19932;-76
2023/04/19 12:35:11;;;;;;;;;;;20.60;97.10;;;;;;8369136;28;19970;-77
2023/04/19 12:39:13;;;;;;;;;;;20.10;78.90;;;;;;8368127;28;19975;-77
2023/04/19 12:43:14;;;;;;;;;;;19.90;90.70;;;;;;8367842;28;19936;-77
2023/04/19 12:47:16;;;;;;;;;;;19.70;83.40;;;;;;8368812;28;19925;-77
2023/04/19 12:51:18;;;;;;;;;;;19.60;68.80;;;;;;8370383;28;19954;-77
2023/04/19 12:55:19;;;;;;;;;;;19.40;72.10;;;;;;8377276;28;19936;-77
2023/04/19 12:59:21;;;;;;;;;;;19.20;75.70;;;;;;8367765;28;20403;-76
2023/04/19 13:03:23;;;;;;;;;;;19.20;75.10;;;;;;8371196;28;19994;-77
2023/04/19 13:07:25;;;;;;;;;;;19.30;63.20;;;;;;8366967;28;19932;-77
2023/04/19 13:21:34;;;;;;;;;;;19.70;72.90;;;;;;8368704;28;19930;-77
2023/04/19 13:25:36;;;;;;;;;;;19.70;83.60;;;;;;8367778;28;19925;-77
2023/04/19 13:29:37;;;;;;;;;;;19.90;82.70;;;;;;8405565;28;19925;-76
2023/04/19 13:33:39;;;;;;;;;;;19.80;78.60;;;;;;8367112;28;19975;-76
2023/04/19 13:37:43;;;;;;;;;;;19.80;72.10;;;;;;8368277;28;19931;-77
2023/04/19 13:41:44;;;;;;;;;;;19.80;75.70;;;;;;8371663;28;20023;-77
2023/04/19 13:45:46;;;;;;;;;;;19.60;69.90;;;;;;8374875;28;20129;-76
2023/04/19 13:49:51;;;;;;;;;;;19.60;68.10;;;;;;8381936;28;20288;-76
2023/04/19 13:53:52;;;;;;;;;;;19.80;71.90;;;;;;8369133;28;19929;-76
2023/04/19 13:57:54;;;;;;;;;;;20.60;75.40;;;;;;8370928;28;19956;-77
2023/04/19 14:01:56;;;;;;;;;;;21.40;70.90;;;;;;8366344;28;19932;-77
2023/04/19 14:05:57;;;;;;;;;;;22.10;73.50;;;;;;8362311;28;19939;-77
2023/04/19 14:09:59;;;;;;;;;;;22.90;85.50;;;;;;8371256;28;19929;-77
2023/04/19 14:14:02;;;;;;;;;;;23.80;82.30;;;;;;8371692;28;20189;-77
2023/04/19 14:18:04;;;;;;;;;;;24.40;98.10;;;;;;8364689;28;20490;-77
2023/04/19 14:22:06;;;;;;;;;;;24.50;77.10;;;;;;8368191;28;20369;-78
2023/04/19 14:26:07;;;;;;;;;;;24.50;85.00;;;;;;8365105;28;21910;-78
2023/04/19 14:30:09;;;;;;;;;;;24.50;91.20;;;;;;8360519;28;19956;-77
2023/04/19 14:34:11;;;;;;;;;;;24.40;78.50;;;;;;8363630;28;20015;-77
2023/04/19 14:38:13;;;;;;;;;;;24.40;92.00;;;;;;8372633;28;21154;-77
2023/04/19 14:42:14;;;;;;;;;;;24.90;85.50;;;;;;8382102;28;20296;-77
2023/04/19 14:46:16;;;;;;;;;;;25.50;90.90;;;;;;8362171;28;19925;-77
2023/04/19 14:50:18;;;;;;;;;;;25.70;80.00;;;;;;8367735;28;19925;-76
2023/04/19 14:54:19;;;;;;;;;;;25.90;84.80;;;;;;8364758;28;19924;-77
2023/04/19 14:58:21;;;;;;;;;;;26.10;83.70;;;;;;8362153;28;19960;-77
2023/04/19 15:02:23;;;;;;;;;;;25.90;82.60;;;;;;8358843;28;20443;-77
2023/04/19 15:06:25;;;;;;;;;;;25.80;73.00;;;;;;8359248;28;20518;-77
2023/04/19 15:10:26;;;;;;;;;;;26.30;93.50;;;;;;8372187;28;19929;-77
2023/04/19 15:14:28;;;;;;;;;;;26.80;90.80;;;;;;8364105;28;19932;-77
2023/04/19 15:18:30;;;;;;;;;;;27.20;91.80;;;;;;8364068;28;19929;-77
2023/04/19 15:22:32;;;;;;;;;;;27.30;88.70;;;;;;8364937;28;19935;-77
2023/04/19 15:26:34;;;;;;;;;;;27.40;92.30;;;;;;8361216;28;19928;-77
2023/04/19 15:30:35;;;;;;;;;;;27.40;79.70;;;;;;8358289;28;19933;-77
2023/04/19 15:45:06;;;;;;;;;;;27.50;90.40;;;;;;8364415;28;20374;-78
2023/04/19 15:49:08;;;;;;;;;;;27.50;88.50;;;;;;8377530;28;20018;-77
2023/04/19 15:53:10;;;;;;;;;;;27.40;77.00;;;;;;8361348;28;20840;-78
2023/04/19 15:57:11;;;;;;;;;;;27.40;64.80;;;;;;8364702;28;19933;-78
2023/04/19 16:01:13;;;;;;;;;;;27.50;82.80;;;;;;8370087;28;20307;-78
2023/04/19 16:05:16;;;;;;;;;;;27.30;58.90;;;;;;8381592;28;20404;-77
2023/04/19 16:09:18;;;;;;;;;;;27.20;73.50;;;;;;8367234;28;19975;-77
2023/04/19 16:13:20;;;;;;;;;;;27.40;74.80;;;;;;8366134;28;20023;-77
2023/04/19 16:17:21;;;;;;;;;;;27.30;65.00;;;;;;8365447;28;19924;-77
2023/04/19 16:21:25;;;;;;;;;;;27.10;75.60;;;;;;8362469;28;20481;-78
2023/04/19 16:25:27;;;;;;;;;;;27.20;74.80;;;;;;8368916;28;20739;-77
2023/04/19 16:29:29;;;;;;;;;;;27.20;76.60;;;;;;8364744;28;19928;-77
2023/04/19 16:33:31;;;;;;;;;;;27.30;62.80;;;;;;8374337;28;19990;-78
2023/04/19 16:37:33;;;;;;;;;;;27.40;66.80;;;;;;8367182;28;20281;-77
2023/04/19 16:41:34;;;;;;;;;;;27.50;73.70;;;;;;8365451;28;20304;-77
2023/04/19 16:45:36;;;;;;;;;;;27.70;66.10;;;;;;8370975;28;20024;-77
2023/04/19 16:49:37;;;;;;;;;;;27.80;66.60;;;;;;8370573;28;19925;-78
2023/04/19 16:53:39;;;;;;;;;;;27.50;68.10;;;;;;8390460;28;19967;-77
2023/04/19 16:57:41;;;;;;;;;;;27.40;67.10;;;;;;8375279;28;19931;-77
2023/04/19 17:01:43;;;;;;;;;;;27.20;65.60;;;;;;8375122;28;19938;-78
2023/04/19 17:05:44;;;;;;;;;;;27.10;63.50;;;;;;8376597;28;19951;-77
2023/04/19 17:09:46;;;;;;;;;;;27.00;56.40;;;;;;8382395;28;19971;-77
2023/04/19 17:13:48;;;;;;;;;;;27.00;58.60;;;;;;8384917;28;19939;-77
2023/04/19 17:17:49;;;;;;;;;;;26.90;58.40;;;;;;8372432;28;19991;-77
2023/04/19 17:21:51;;;;;;;;;;;26.40;56.00;;;;;;8378494;28;20014;-77
2023/04/19 17:25:52;;;;;;;;;;;26.10;57.20;;;;;;8368785;28;19932;-78
2023/04/19 17:29:54;;;;;;;;;;;25.80;58.00;;;;;;8364162;28;19924;-77
2023/04/19 17:33:56;;;;;;;;;;;25.70;56.50;;;;;;8365755;28;19932;-78
2023/04/19 17:37:57;;;;;;;;;;;25.60;55.20;;;;;;8374438;28;19941;-78
2023/04/19 17:42:00;;;;;;;;;;;25.20;50.90;;;;;;8371855;28;20333;-77
2023/04/19 17:51:05;;;;;;;;;;;24.70;52.80;;;;;;8373067;28;19971;-78
2023/04/19 17:55:07;;;;;;;;;;;24.00;51.30;;;;;;8376923;28;19939;-77
2023/04/19 17:59:09;;;;;;;;;;;23.40;48.90;;;;;;8382770;28;19995;-77
2023/04/19 18:03:11;;;;;;;;;;;22.70;48.10;;;;;;8372336;28;19932;-77
2023/04/19 18:07:13;;;;;;;;;;;21.80;49.40;;;;;;8373630;28;19928;-77
2023/04/19 18:11:16;;;;;;;;;;;21.20;49.00;;;;;;8376367;28;20428;-77
2023/04/19 18:15:18;;;;;;;;;;;20.60;48.10;;;;;;8381807;28;19925;-77
2023/04/19 18:29:39;;;;;;;;;;;18.90;46.80;;;;;;8302296;28;20379;-77
2023/04/19 18:33:41;;;;;;;;;;;18.30;46.30;;;;;;8299257;28;19934;-77
2023/04/19 18:37:42;;;;;;;;;;;18.00;46.10;;;;;;8323701;28;19932;-77
2023/04/19 18:41:44;;;;;;;;;;;17.80;45.90;;;;;;8297886;28;19972;-77
2023/04/19 18:45:55;;;;;;;;;;;17.60;45.50;;;;;;8295094;28;19929;-77
2023/04/19 18:49:57;;;;;;;;;;;17.40;45.50;;;;;;8311343;28;19933;-77
2023/04/19 18:54:05;;;;;;;;;;;17.30;45.00;;;;;;8308557;28;19976;-77
2023/04/19 18:58:07;;;;;;;;;;;17.00;44.70;;;;;;8302211;28;19925;-77
2023/04/19 19:02:09;;;;;;;;;;;16.80;44.90;;;;;;8308251;28;19968;-77
2023/04/19 19:21:47;;;;;;;;;;;16.20;43.90;;;;;;8300611;28;19920;-76
2023/04/19 19:25:49;;;;;;;;;;;16.20;43.90;;;;;;8301868;28;20431;-77
2023/04/19 19:29:50;;;;;;;;;;;16.10;43.50;;;;;;8398794;28;20308;-77
2023/04/19 19:33:52;;;;;;;;;;;16.00;43.50;;;;;;8369822;28;19939;-77
2023/04/19 19:38:14;;;;;;;;;;;15.80;43.30;;;;;;8368416;28;19929;-77
2023/04/19 19:42:16;;;;;;;;;;;15.70;43.50;;;;;;8372985;28;20028;-77
2023/04/19 19:46:17;;;;;;;;;;;15.70;43.40;;;;;;8365726;28;19929;-76
2023/04/19 19:50:22;;;;;;;;;;;15.70;43.10;;;;;;8361996;28;20323;-76
2023/04/19 19:54:26;;;;;;;;;;;15.60;42.80;;;;;;8379766;28;20012;-76
2023/04/19 19:58:28;;;;;;;;;;;15.50;42.60;;;;;;8368550;28;20022;-77
2023/04/19 20:02:49;;;;;;;;;;;15.40;42.40;;;;;;8383564;28;19951;-77
2023/04/19 20:06:57;;;;;;;;;;;15.30;43.50;;;;;;8365643;28;20501;-76
2023/04/19 20:21:49;;;;;;;;;;;14.60;42.40;;;;;;8371751;28;20340;-77
2023/04/19 20:25:51;;;;;;;;;;;14.30;42.40;;;;;;8370838;28;19955;-76
2023/04/19 20:29:53;;;;;;;;;;;14.20;42.30;;;;;;8372815;28;20023;-77
2023/04/19 20:33:55;;;;;;;;;;;14.10;42.30;;;;;;8365914;28;19924;-76
2023/04/19 20:38:01;;;;;;;;;;;14.10;41.70;;;;;;8380836;28;19929;-77
2023/04/19 20:42:03;;;;;;;;;;;13.80;41.30;;;;;;8401108;28;20425;-76
2023/04/19 20:46:05;;;;;;;;;;;13.70;41.10;;;;;;8370800;28;20490;-76
2023/04/19 20:50:07;;;;;;;;;;;13.70;41.50;;;;;;8373602;28;19932;-76
2023/04/19 20:54:09;;;;;;;;;;;13.50;41.30;;;;;;8372057;28;20336;-76
2023/04/19 20:58:11;;;;;;;;;;;13.30;41.00;;;;;;8370258;28;19931;-77
2023/04/19 21:02:12;;;;;;;;;;;13.10;40.90;;;;;;8377006;28;19960;-76
2023/04/19 21:06:14;;;;;;;;;;;13.00;41.00;;;;;;8392798;28;19931;-76
2023/04/19 21:10:16;;;;;;;;;;;12.90;40.90;;;;;;8387358;28;19939;-77
2023/04/19 21:14:17;;;;;;;;;;;12.80;40.30;;;;;;8395413;28;19929;-77
2023/04/19 21:18:19;;;;;;;;;;;12.80;40.30;;;;;;8401081;28;20339;-76
2023/04/19 21:22:21;;;;;;;;;;;12.60;39.90;;;;;;8388075;28;20024;-77
2023/04/19 21:26:22;;;;;;;;;;;12.50;40.50;;;;;;8402660;28;20352;-76
2023/04/19 21:30:24;;;;;;;;;;;12.40;39.80;;;;;;8392155;28;20315;-76
2023/04/19 21:34:26;;;;;;;;;;;12.30;39.40;;;;;;8385239;28;20296;-77
2023/04/19 21:38:27;;;;;;;;;;;12.30;39.60;;;;;;8396450;28;20020;-76
2023/04/19 21:42:29;;;;;;;;;;;12.20;39.40;;;;;;8378674;28;20298;-76
2023/04/19 21:46:32;;;;;;;;;;;12.00;39.60;;;;;;8388092;28;19975;-76
2023/04/19 21:50:34;;;;;;;;;;;12.00;39.20;;;;;;8380511;28;19931;-76
2023/04/19 21:54:35;;;;;;;;;;;11.90;38.80;;;;;;8386591;28;19925;-76
2023/04/19 22:13:41;;;;;;;;;;;11.60;38.30;;;;;;8381027;28;20293;-76
2023/04/19 22:17:43;;;;;;;;;;;11.50;38.40;;;;;;8386689;28;19952;-76
2023/04/19 22:21:45;;;;;;;;;;;11.40;38.30;;;;;;8390814;28;20018;-76
2023/04/19 22:25:47;;;;;;;;;;;11.30;38.70;;;;;;8397925;28;19931;-75
2023/04/19 22:29:48;;;;;;;;;;;11.10;38.20;;;;;;8406160;28;20027;-76
2023/04/19 22:33:50;;;;;;;;;;;11.10;38.30;;;;;;8390001;28;19924;-76
2023/04/19 22:37:51;;;;;;;;;;;11.00;38.20;;;;;;8393448;28;19931;-76
2023/04/19 22:41:53;;;;;;;;;;;10.90;38.40;;;;;;8386699;28;19925;-75
2023/04/19 22:45:55;;;;;;;;;;;10.80;38.00;;;;;;8388815;28;19925;-76
2023/04/19 22:49:56;;;;;;;;;;;10.70;38.30;;;;;;8392758;28;19932;-76
2023/04/19 22:53:58;;;;;;;;;;;10.60;39.00;;;;;;8383703;28;19979;-76
2023/04/19 22:58:00;;;;;;;;;;;10.50;37.50;;;;;;8385063;28;20376;-75
2023/04/19 23:02:01;;;;;;;;;;;10.50;37.90;;;;;;8393235;28;19967;-76
2023/04/19 23:06:03;;;;;;;;;;;10.50;37.30;;;;;;8397943;28;19925;-75
2023/04/19 23:10:05;;;;;;;;;;;10.40;37.20;;;;;;8400317;28;19935;-76
2023/04/19 23:14:09;;;;;;;;;;;10.30;37.40;;;;;;8393350;28;19924;-76
2023/04/19 23:18:11;;;;;;;;;;;10.20;37.80;;;;;;8390864;28;19978;-76
2023/04/19 23:22:12;;;;;;;;;;;10.20;37.30;;;;;;8391706;28;19925;-76
2023/04/19 23:26:14;;;;;;;;;;;10.00;37.40;;;;;;8394498;28;20380;-76
2023/04/19 23:30:16;;;;;;;;;;;10.00;37.70;;;;;;8408484;28;19970;-76
2023/04/19 23:34:18;;;;;;;;;;;10.00;37.20;;;;;;8392626;28;19936;-76
2023/04/19 23:38:19;;;;;;;;;;;9.90;39.00;;;;;;8430013;27;19933;-75
2023/04/19 23:42:21;;;;;;;;;;;9.90;37.90;;;;;;8399976;28;19971;-76
2023/04/19 23:51:25;;;;;;;;;;;9.80;38.80;;;;;;8385143;28;19919;-75
2023/04/19 23:55:27;;;;;;;;;;;9.80;37.90;;;;;;8398531;28;19947;-75
